Time;durP1;ratioP1;P1;durP2;ratioP2;P2;SDS_P1;SDS_P2;PMS_P1;PMS_P2;Temp;Humidity;BMP_temperature;BMP_pressure;BME280_temperature;BME280_humidity;BME280_pressure;Samples;Min_cycle;Max_cycle;Signal;HPM_P1;HPM_P2
2021/09/09 00:02:28;;;;;;;14.15;7.22;;;;;;;;;;5010814;28;20050;-67
2021/09/09 00:04:57;;;;;;;12.20;7.18;;;;;;;;;;5008574;28;20553;-68
2021/09/09 00:07:25;;;;;;;15.93;7.63;;;;;;;;;;5005406;28;20126;-71
2021/09/09 00:09:53;;;;;;;9.35;6.47;;;;;;;;;;5010843;28;20041;-69
2021/09/09 00:12:21;;;;;;;12.77;6.75;;;;;;;;;;5011400;28;20085;-70
2021/09/09 00:14:50;;;;;;;10.73;6.43;;;;;;;;;;5009901;28;20045;-67
2021/09/09 00:17:18;;;;;;;11.50;6.60;;;;;;;;;;5010738;28;20054;-67
2021/09/09 00:19:47;;;;;;;12.68;6.70;;;;;;;;;;5011060;28;20042;-67
2021/09/09 00:22:16;;;;;;;11.15;6.65;;;;;;;;;;5010917;28;20129;-68
2021/09/09 00:24:44;;;;;;;11.57;6.63;;;;;;;;;;5009829;28;20512;-66
2021/09/09 00:27:12;;;;;;;13.25;6.50;;;;;;;;;;5008543;28;20054;-67
2021/09/09 00:29:40;;;;;;;12.07;6.95;;;;;;;;;;5009661;28;20395;-70
2021/09/09 00:32:09;;;;;;;12.07;7.60;;;;;;;;;;5010187;28;20506;-70
2021/09/09 00:34:37;;;;;;;14.10;7.35;;;;;;;;;;5009678;28;20071;-68
2021/09/09 00:37:07;;;;;;;15.02;7.55;;;;;;;;;;5003969;28;20046;-68
2021/09/09 00:39:35;;;;;;;12.43;7.22;;;;;;;;;;5010503;28;20060;-66
2021/09/09 00:42:04;;;;;;;15.88;8.20;;;;;;;;;;5009831;28;20103;-66
2021/09/09 00:44:32;;;;;;;13.02;7.72;;;;;;;;;;5006953;28;20136;-66
2021/09/09 00:47:01;;;;;;;13.55;7.32;;;;;;;;;;5010488;28;20133;-67
2021/09/09 00:49:30;;;;;;;10.98;6.68;;;;;;;;;;5010847;28;20081;-69
2021/09/09 00:51:58;;;;;;;16.25;7.40;;;;;;;;;;5009933;28;20574;-68
2021/09/09 00:54:28;;;;;;;11.80;7.30;;;;;;;;;;5008532;28;20337;-67
2021/09/09 00:56:57;;;;;;;11.52;6.47;;;;;;;;;;5009270;28;20056;-66
2021/09/09 00:59:26;;;;;;;12.57;7.05;;;;;;;;;;5010437;28;20478;-68
2021/09/09 01:01:55;;;;;;;11.50;7.18;;;;;;;;;;5007865;28;20056;-73
2021/09/09 01:04:23;;;;;;;13.65;7.18;;;;;;;;;;4993948;28;20061;-70
2021/09/09 01:06:52;;;;;;;11.77;7.03;;;;;;;;;;5009172;28;20141;-66
2021/09/09 01:09:20;;;;;;;11.40;7.00;;;;;;;;;;5008879;28;20075;-70
2021/09/09 01:11:49;;;;;;;11.50;6.63;;;;;;;;;;5009084;28;20053;-68
2021/09/09 01:14:19;;;;;;;12.88;7.20;;;;;;;;;;5004418;28;20703;-67
2021/09/09 01:16:48;;;;;;;11.57;6.68;;;;;;;;;;5000330;28;20160;-69
2021/09/09 01:19:16;;;;;;;13.05;6.47;;;;;;;;;;5006379;28;20057;-66
2021/09/09 01:21:45;;;;;;;10.40;6.30;;;;;;;;;;4995288;28;20054;-66
2021/09/09 01:24:15;;;;;;;11.57;6.20;;;;;;;;;;5000199;28;20133;-66
2021/09/09 01:26:51;;;;;;;10.77;6.53;;;;;;;;;;5009931;28;20136;-66
2021/09/09 01:29:20;;;;;;;11.90;6.53;;;;;;;;;;5009310;28;20129;-70
2021/09/09 01:31:48;;;;;;;13.75;6.35;;;;;;;;;;5009198;28;20405;-67
2021/09/09 01:34:17;;;;;;;11.10;6.50;;;;;;;;;;5001827;28;20470;-66
2021/09/09 01:36:45;;;;;;;11.60;6.85;;;;;;;;;;5009496;28;20046;-68
2021/09/09 01:39:15;;;;;;;10.75;6.75;;;;;;;;;;5009129;28;20051;-66
2021/09/09 01:41:43;;;;;;;11.35;7.25;;;;;;;;;;5005778;28;20405;-66
2021/09/09 01:44:14;;;;;;;11.57;6.72;;;;;;;;;;4997356;28;20057;-69
2021/09/09 01:46:42;;;;;;;11.88;7.10;;;;;;;;;;5007638;28;20076;-70
2021/09/09 01:49:10;;;;;;;12.00;6.75;;;;;;;;;;5006490;28;20042;-66
2021/09/09 01:51:39;;;;;;;12.63;6.95;;;;;;;;;;5009558;28;20567;-69
2021/09/09 01:54:07;;;;;;;9.40;6.30;;;;;;;;;;5007756;28;20161;-68
2021/09/09 01:56:37;;;;;;;13.27;6.90;;;;;;;;;;5004191;28;20512;-67
2021/09/09 01:59:05;;;;;;;15.00;7.40;;;;;;;;;;5009525;28;20056;-68
2021/09/09 02:01:33;;;;;;;10.98;7.10;;;;;;;;;;5009882;28;20054;-68
2021/09/09 02:04:02;;;;;;;10.18;6.25;;;;;;;;;;5006756;28;20038;-68
2021/09/09 02:06:30;;;;;;;10.32;5.97;;;;;;;;;;5007369;28;20574;-68
2021/09/09 02:08:59;;;;;;;11.93;6.45;;;;;;;;;;5008483;28;20522;-67
2021/09/09 02:11:27;;;;;;;12.52;6.13;;;;;;;;;;5008910;28;20049;-66
2021/09/09 02:13:57;;;;;;;11.07;6.60;;;;;;;;;;5007844;28;20054;-66
2021/09/09 02:16:25;;;;;;;10.13;6.28;;;;;;;;;;4990526;28;20054;-67
2021/09/09 02:18:53;;;;;;;13.63;6.38;;;;;;;;;;4999875;28;20049;-74
2021/09/09 02:21:22;;;;;;;9.80;6.35;;;;;;;;;;5007326;28;20056;-70
2021/09/09 02:23:50;;;;;;;12.13;6.80;;;;;;;;;;5006528;28;20050;-70
2021/09/09 02:26:18;;;;;;;10.80;6.32;;;;;;;;;;5008439;28;20050;-66
2021/09/09 02:28:47;;;;;;;11.63;7.03;;;;;;;;;;5009689;28;20505;-70
2021/09/09 02:31:16;;;;;;;11.50;6.18;;;;;;;;;;5008906;28;20054;-67
2021/09/09 02:33:44;;;;;;;9.70;5.93;;;;;;;;;;5010537;28;20049;-67
2021/09/09 02:36:13;;;;;;;11.68;6.35;;;;;;;;;;5008225;28;20054;-67
2021/09/09 02:38:41;;;;;;;10.98;6.00;;;;;;;;;;5009071;28;20049;-69
2021/09/09 02:41:09;;;;;;;12.63;6.03;;;;;;;;;;5008387;28;20118;-67
2021/09/09 02:43:37;;;;;;;14.00;7.10;;;;;;;;;;5007862;28;20054;-66
2021/09/09 02:46:06;;;;;;;12.85;6.45;;;;;;;;;;5004371;28;20129;-66
2021/09/09 02:48:35;;;;;;;9.45;5.78;;;;;;;;;;5008601;28;20556;-66
2021/09/09 02:51:04;;;;;;;10.15;6.10;;;;;;;;;;5009697;28;20050;-72
2021/09/09 02:53:32;;;;;;;10.15;6.25;;;;;;;;;;5007980;28;20124;-67
2021/09/09 02:56:00;;;;;;;10.68;5.95;;;;;;;;;;5008380;28;20046;-67
2021/09/09 02:58:28;;;;;;;12.60;6.32;;;;;;;;;;5009315;28;20128;-68
2021/09/09 03:00:57;;;;;;;12.55;6.75;;;;;;;;;;5011607;28;20500;-67
2021/09/09 03:03:25;;;;;;;9.10;5.40;;;;;;;;;;5011219;28;20045;-67
2021/09/09 03:05:55;;;;;;;10.80;6.50;;;;;;;;;;5010633;28;20050;-67
2021/09/09 03:08:23;;;;;;;12.63;7.22;;;;;;;;;;5011503;28;20457;-69
2021/09/09 03:10:51;;;;;;;11.07;6.57;;;;;;;;;;5011878;28;20046;-67
2021/09/09 03:13:20;;;;;;;11.57;5.97;;;;;;;;;;5005175;28;20047;-68
2021/09/09 03:15:48;;;;;;;13.30;7.07;;;;;;;;;;4997507;28;20042;-67
2021/09/09 03:18:16;;;;;;;11.68;5.95;;;;;;;;;;5005256;28;20050;-68
2021/09/09 03:20:44;;;;;;;12.85;7.10;;;;;;;;;;5011616;28;20050;-70
2021/09/09 03:23:14;;;;;;;11.80;6.55;;;;;;;;;;5011063;28;20129;-70
2021/09/09 03:25:59;;;;;;;12.46;6.44;;;;;;;;;;4495951;28;10001461;-67
2021/09/09 03:28:28;;;;;;;13.27;6.95;;;;;;;;;;1376026;28;10002025;-67
2021/09/09 03:30:56;;;;;;;11.23;6.38;;;;;;;;;;5007327;28;20125;-67
2021/09/09 03:33:24;;;;;;;11.15;6.75;;;;;;;;;;5010933;28;20054;-67
2021/09/09 03:35:53;;;;;;;13.25;6.97;;;;;;;;;;5011215;28;20094;-68
2021/09/09 03:38:22;;;;;;;11.63;6.75;;;;;;;;;;5011282;28;20141;-67
2021/09/09 03:40:50;;;;;;;12.70;7.18;;;;;;;;;;5011386;28;20050;-67
2021/09/09 03:43:19;;;;;;;10.70;6.07;;;;;;;;;;5003523;28;20149;-67
2021/09/09 03:45:47;;;;;;;10.95;6.65;;;;;;;;;;5011468;28;20046;-66
2021/09/09 03:48:15;;;;;;;11.50;6.30;;;;;;;;;;5010464;28;20516;-69
2021/09/09 03:50:43;;;;;;;12.10;6.60;;;;;;;;;;5011668;28;20421;-66
2021/09/09 03:53:11;;;;;;;9.27;6.07;;;;;;;;;;5010988;28;20131;-67
2021/09/09 03:55:41;;;;;;;14.15;7.05;;;;;;;;;;5011632;28;20060;-67
2021/09/09 03:58:09;;;;;;;11.70;6.30;;;;;;;;;;5009617;28;20498;-72
2021/09/09 04:00:37;;;;;;;9.70;6.00;;;;;;;;;;5010814;28;20046;-66
2021/09/09 04:03:06;;;;;;;11.35;6.00;;;;;;;;;;5010802;28;20050;-69
2021/09/09 04:05:34;;;;;;;11.00;6.68;;;;;;;;;;5010601;28;20439;-67
2021/09/09 04:08:03;;;;;;;10.85;6.10;;;;;;;;;;5010343;28;20512;-67
2021/09/09 04:10:31;;;;;;;13.63;5.85;;;;;;;;;;4995554;28;20049;-66
2021/09/09 04:13:01;;;;;;;10.93;6.32;;;;;;;;;;5010809;28;20046;-68
2021/09/09 04:15:29;;;;;;;11.90;6.53;;;;;;;;;;5010287;28;20046;-66
2021/09/09 04:17:57;;;;;;;12.65;6.35;;;;;;;;;;5011187;28;20052;-66
2021/09/09 04:20:26;;;;;;;10.23;5.88;;;;;;;;;;5011201;28;20080;-71
2021/09/09 04:22:54;;;;;;;11.57;6.38;;;;;;;;;;5011998;28;20140;-70
2021/09/09 04:25:22;;;;;;;9.50;6.13;;;;;;;;;;5011458;28;20069;-68
2021/09/09 04:27:51;;;;;;;12.48;6.38;;;;;;;;;;5011270;28;20417;-69
2021/09/09 04:30:20;;;;;;;11.63;6.90;;;;;;;;;;5011156;28;20104;-68
2021/09/09 04:32:48;;;;;;;11.27;6.57;;;;;;;;;;5011375;28;20053;-68
2021/09/09 04:35:17;;;;;;;11.27;6.25;;;;;;;;;;5010847;28;20092;-67
2021/09/09 04:37:45;;;;;;;10.77;6.50;;;;;;;;;;5003164;28;20064;-66
2021/09/09 04:40:14;;;;;;;14.50;7.28;;;;;;;;;;5009598;28;20054;-66
2021/09/09 04:42:42;;;;;;;12.25;6.30;;;;;;;;;;5000396;28;20045;-66
2021/09/09 04:45:11;;;;;;;11.23;7.00;;;;;;;;;;5010706;28;20064;-66
2021/09/09 04:47:41;;;;;;;16.55;6.78;;;;;;;;;;5009888;28;20405;-71
2021/09/09 04:50:09;;;;;;;12.05;6.20;;;;;;;;;;5010033;28;20168;-70
2021/09/09 04:52:38;;;;;;;11.43;6.07;;;;;;;;;;5011423;28;20084;-69
2021/09/09 04:55:07;;;;;;;12.48;6.63;;;;;;;;;;5011909;28;20132;-69
2021/09/09 04:57:36;;;;;;;12.02;6.93;;;;;;;;;;5008678;28;20096;-66
2021/09/09 05:00:04;;;;;;;12.63;6.13;;;;;;;;;;5011050;28;20048;-69
2021/09/09 05:02:33;;;;;;;10.55;6.50;;;;;;;;;;5003414;28;20076;-66
2021/09/09 05:05:03;;;;;;;12.13;5.82;;;;;;;;;;5007829;28;20569;-69
2021/09/09 05:07:31;;;;;;;12.07;6.50;;;;;;;;;;5006061;28;20084;-69
2021/09/09 05:10:00;;;;;;;12.25;6.65;;;;;;;;;;4999396;28;20084;-66
2021/09/09 05:12:29;;;;;;;11.20;6.00;;;;;;;;;;5010317;28;20514;-68
2021/09/09 05:14:57;;;;;;;11.13;6.38;;;;;;;;;;5008344;28;20050;-71
2021/09/09 05:17:25;;;;;;;10.25;5.90;;;;;;;;;;5009666;28;20050;-73
2021/09/09 05:19:54;;;;;;;13.73;6.97;;;;;;;;;;5007297;28;20518;-71
2021/09/09 05:22:23;;;;;;;12.35;6.40;;;;;;;;;;4998031;28;20053;-70
2021/09/09 05:24:52;;;;;;;13.77;6.93;;;;;;;;;;5006973;28;20048;-68
2021/09/09 05:27:20;;;;;;;9.95;5.95;;;;;;;;;;4999522;28;20683;-67
2021/09/09 05:29:48;;;;;;;12.30;6.18;;;;;;;;;;5005083;28;20542;-67
2021/09/09 05:32:16;;;;;;;13.82;7.20;;;;;;;;;;5004176;28;20049;-69
2021/09/09 05:34:45;;;;;;;11.73;6.10;;;;;;;;;;5005666;28;20042;-70
2021/09/09 05:37:13;;;;;;;10.35;6.22;;;;;;;;;;4998223;28;20057;-68
2021/09/09 05:39:42;;;;;;;10.73;5.93;;;;;;;;;;4992443;28;20153;-69
2021/09/09 05:42:11;;;;;;;11.50;5.72;;;;;;;;;;5003873;28;20395;-66
2021/09/09 05:44:40;;;;;;;10.57;6.18;;;;;;;;;;5006563;28;20053;-70
2021/09/09 05:47:09;;;;;;;10.55;5.82;;;;;;;;;;5007675;28;20077;-70
2021/09/09 05:49:37;;;;;;;13.40;6.30;;;;;;;;;;5006532;28;20058;-72
2021/09/09 05:52:06;;;;;;;12.63;6.45;;;;;;;;;;5008663;28;20050;-67
2021/09/09 05:54:34;;;;;;;9.00;5.97;;;;;;;;;;5005581;28;20076;-68
2021/09/09 05:57:04;;;;;;;7.82;4.93;;;;;;;;;;5004709;28;20048;-67
2021/09/09 05:59:33;;;;;;;11.25;6.55;;;;;;;;;;5006783;28;20785;-71
2021/09/09 06:02:01;;;;;;;10.63;6.32;;;;;;;;;;5000271;28;20046;-70
2021/09/09 06:04:34;;;;;;;10.38;5.85;;;;;;;;;;5005429;28;20371;-68
2021/09/09 06:07:02;;;;;;;12.63;6.40;;;;;;;;;;5000981;28;20037;-67
2021/09/09 06:09:30;;;;;;;10.63;6.20;;;;;;;;;;4993790;28;20133;-67
2021/09/09 06:11:59;;;;;;;14.23;6.13;;;;;;;;;;5003900;28;20136;-70
2021/09/09 06:14:29;;;;;;;13.02;6.22;;;;;;;;;;5002797;28;20046;-71
2021/09/09 06:16:58;;;;;;;11.85;6.38;;;;;;;;;;5005553;28;20461;-73
2021/09/09 06:19:26;;;;;;;10.93;6.25;;;;;;;;;;5004068;28;20072;-68
2021/09/09 06:21:54;;;;;;;11.57;6.47;;;;;;;;;;4998173;28;20104;-67
2021/09/09 06:24:22;;;;;;;13.73;6.68;;;;;;;;;;5004254;28;20088;-69
2021/09/09 06:26:50;;;;;;;11.48;6.20;;;;;;;;;;5004616;28;20522;-69
2021/09/09 06:29:19;;;;;;;10.35;6.22;;;;;;;;;;5000659;28;20056;-70
2021/09/09 06:31:49;;;;;;;14.93;6.93;;;;;;;;;;5003058;28;20050;-70
2021/09/09 06:34:17;;;;;;;10.40;6.65;;;;;;;;;;4998495;28;20407;-67
2021/09/09 06:36:45;;;;;;;10.25;6.50;;;;;;;;;;5005103;28;20050;-69
2021/09/09 06:39:14;;;;;;;14.32;6.18;;;;;;;;;;5006965;28;20180;-67
2021/09/09 06:41:44;;;;;;;9.95;6.50;;;;;;;;;;5007402;28;20501;-68
2021/09/09 06:44:13;;;;;;;9.95;6.35;;;;;;;;;;5004225;28;20093;-69
2021/09/09 06:46:41;;;;;;;11.40;6.65;;;;;;;;;;5004389;28;20124;-69
2021/09/09 06:49:11;;;;;;;11.95;6.90;;;;;;;;;;5006906;28;20116;-72
2021/09/09 06:51:41;;;;;;;13.25;6.43;;;;;;;;;;5006946;28;20064;-71
2021/09/09 06:54:09;;;;;;;10.63;6.18;;;;;;;;;;5000664;28;20049;-71
2021/09/09 06:56:37;;;;;;;15.50;6.75;;;;;;;;;;5008584;28;20362;-70
2021/09/09 06:59:05;;;;;;;14.50;7.35;;;;;;;;;;5007928;28;20069;-70
2021/09/09 07:01:34;;;;;;;11.05;6.88;;;;;;;;;;5009712;28;20076;-67
2021/09/09 07:04:04;;;;;;;15.70;7.68;;;;;;;;;;5009667;28;20037;-68
2021/09/09 07:06:34;;;;;;;11.02;6.38;;;;;;;;;;5004323;28;21028;-72
2021/09/09 07:09:03;;;;;;;11.35;6.60;;;;;;;;;;5004405;28;20050;-71
2021/09/09 07:11:31;;;;;;;15.15;6.88;;;;;;;;;;5005412;28;20241;-74
2021/09/09 07:14:00;;;;;;;12.55;6.35;;;;;;;;;;5004393;28;20046;-68
2021/09/09 07:16:28;;;;;;;14.10;7.32;;;;;;;;;;5007707;28;20053;-67
2021/09/09 07:18:57;;;;;;;11.18;6.28;;;;;;;;;;5009957;28;20096;-72
2021/09/09 07:21:25;;;;;;;11.93;6.85;;;;;;;;;;4994561;28;20177;-66
2021/09/09 07:23:55;;;;;;;10.13;6.03;;;;;;;;;;5009227;28;20089;-67
2021/09/09 07:26:23;;;;;;;13.05;6.40;;;;;;;;;;5007582;28;20292;-67
2021/09/09 07:28:52;;;;;;;12.00;6.45;;;;;;;;;;5007955;28;20530;-67
2021/09/09 07:31:20;;;;;;;12.45;6.63;;;;;;;;;;5005990;28;20045;-72
2021/09/09 07:33:49;;;;;;;11.07;6.25;;;;;;;;;;5004109;28;20046;-66
2021/09/09 07:36:18;;;;;;;8.30;5.85;;;;;;;;;;5010617;28;20050;-67
2021/09/09 07:38:46;;;;;;;10.18;5.97;;;;;;;;;;5009450;28;20054;-66
2021/09/09 07:41:18;;;;;;;10.18;5.72;;;;;;;;;;5009917;28;20572;-70
2021/09/09 07:43:46;;;;;;;10.27;6.22;;;;;;;;;;5005451;28;20529;-67
2021/09/09 07:46:15;;;;;;;11.35;6.07;;;;;;;;;;5008015;28;20053;-66
2021/09/09 07:48:44;;;;;;;13.48;5.70;;;;;;;;;;5009962;28;20132;-72
2021/09/09 07:51:15;;;;;;;8.80;5.85;;;;;;;;;;5008599;28;20046;-67
2021/09/09 07:53:44;;;;;;;10.85;5.82;;;;;;;;;;5003121;28;20054;-67
2021/09/09 07:56:13;;;;;;;9.93;5.53;;;;;;;;;;5008549;28;20521;-66
2021/09/09 07:58:48;;;;;;;10.50;6.25;;;;;;;;;;5008619;28;20054;-67
2021/09/09 08:01:18;;;;;;;10.63;5.63;;;;;;;;;;5008724;28;20085;-68
2021/09/09 08:03:47;;;;;;;15.38;6.32;;;;;;;;;;5006969;28;20133;-67
2021/09/09 08:06:16;;;;;;;10.13;6.53;;;;;;;;;;5008343;28;20050;-69
2021/09/09 08:08:45;;;;;;;11.20;6.05;;;;;;;;;;5009718;28;20050;-67
2021/09/09 08:11:13;;;;;;;8.60;5.50;;;;;;;;;;5002850;28;20046;-66
2021/09/09 08:13:44;;;;;;;9.48;5.75;;;;;;;;;;5006848;28;20042;-66
2021/09/09 08:16:13;;;;;;;12.23;5.30;;;;;;;;;;5008349;28;20073;-70
2021/09/09 08:18:42;;;;;;;9.88;5.28;;;;;;;;;;5008186;28;20054;-66
2021/09/09 08:21:11;;;;;;;8.70;4.97;;;;;;;;;;5009300;28;20103;-72
2021/09/09 08:23:39;;;;;;;8.10;5.15;;;;;;;;;;5005261;28;20049;-70
2021/09/09 08:26:08;;;;;;;9.82;6.25;;;;;;;;;;5005336;28;20115;-67
2021/09/09 08:28:37;;;;;;;8.32;5.13;;;;;;;;;;5001566;28;20451;-67
2021/09/09 08:31:07;;;;;;;8.77;5.35;;;;;;;;;;5009594;28;20046;-70
2021/09/09 08:33:38;;;;;;;7.32;5.20;;;;;;;;;;4997699;28;20486;-69
2021/09/09 08:36:07;;;;;;;7.05;4.50;;;;;;;;;;5009084;28;20045;-66
2021/09/09 08:38:36;;;;;;;9.18;5.18;;;;;;;;;;4996545;28;20483;-69
2021/09/09 08:41:05;;;;;;;8.32;5.53;;;;;;;;;;5007699;28;20518;-67
2021/09/09 08:43:35;;;;;;;8.68;5.10;;;;;;;;;;5009297;28;20134;-66
2021/09/09 08:46:04;;;;;;;9.27;5.22;;;;;;;;;;5009790;28;20746;-67
2021/09/09 08:48:35;;;;;;;8.50;4.78;;;;;;;;;;5009252;28;20034;-68
2021/09/09 08:51:03;;;;;;;6.85;4.70;;;;;;;;;;5009899;28;20058;-66
2021/09/09 08:53:32;;;;;;;12.57;4.88;;;;;;;;;;5004303;28;20050;-70
2021/09/09 08:56:01;;;;;;;9.23;4.88;;;;;;;;;;5007365;28;20054;-69
2021/09/09 08:58:30;;;;;;;10.05;4.57;;;;;;;;;;5009371;28;20506;-66
2021/09/09 09:01:05;;;;;;;8.00;4.80;;;;;;;;;;5006216;28;20062;-67
2021/09/09 09:03:50;;;;;;;6.95;4.90;;;;;;;;;;5005767;28;20049;-66
2021/09/09 09:06:38;;;;;;;8.38;4.82;;;;;;;;;;5008829;28;20049;-74
2021/09/09 09:09:09;;;;;;;8.98;4.70;;;;;;;;;;4997339;28;20169;-70
2021/09/09 09:11:40;;;;;;;8.20;4.70;;;;;;;;;;4997845;28;20515;-66
2021/09/09 09:14:09;;;;;;;8.43;4.85;;;;;;;;;;5007794;28;20037;-67
2021/09/09 09:16:43;;;;;;;7.88;4.95;;;;;;;;;;4995044;28;20100;-66
2021/09/09 09:19:13;;;;;;;6.85;4.50;;;;;;;;;;5007878;28;20053;-67
2021/09/09 09:21:43;;;;;;;8.98;4.60;;;;;;;;;;5008931;28;20050;-71
2021/09/09 09:24:13;;;;;;;8.63;5.32;;;;;;;;;;5007758;28;20072;-73
2021/09/09 09:26:42;;;;;;;7.28;4.80;;;;;;;;;;5008737;28;20379;-66
2021/09/09 09:29:10;;;;;;;8.75;4.68;;;;;;;;;;5000721;28;20041;-71
2021/09/09 09:31:39;;;;;;;10.05;4.65;;;;;;;;;;5001283;28;20053;-67
2021/09/09 09:34:10;;;;;;;6.47;4.32;;;;;;;;;;5007616;28;20060;-66
2021/09/09 09:36:42;;;;;;;7.85;4.20;;;;;;;;;;5001254;28;20104;-70
2021/09/09 09:39:19;;;;;;;7.97;4.57;;;;;;;;;;5000388;28;20753;-69
2021/09/09 09:41:57;;;;;;;7.88;4.15;;;;;;;;;;5007735;28;20092;-68
2021/09/09 09:44:30;;;;;;;6.72;4.10;;;;;;;;;;5007013;28;20074;-66
2021/09/09 09:47:08;;;;;;;5.40;3.83;;;;;;;;;;5003956;28;20546;-67
2021/09/09 09:49:39;;;;;;;8.10;4.38;;;;;;;;;;5007912;28;20367;-66
2021/09/09 09:52:13;;;;;;;7.50;4.00;;;;;;;;;;5008387;28;20104;-69
2021/09/09 09:54:49;;;;;;;5.80;4.07;;;;;;;;;;4992951;28;20838;-67
2021/09/09 09:57:17;;;;;;;6.72;4.38;;;;;;;;;;5001648;28;20530;-66
2021/09/09 09:59:46;;;;;;;6.78;4.28;;;;;;;;;;4994585;28;20058;-68
2021/09/09 10:02:14;;;;;;;7.53;4.60;;;;;;;;;;5004356;28;20072;-67
2021/09/09 10:04:44;;;;;;;7.25;4.88;;;;;;;;;;5006255;28;20058;-67
2021/09/09 10:07:14;;;;;;;5.88;3.90;;;;;;;;;;4992353;28;20129;-66
2021/09/09 10:09:43;;;;;;;5.68;3.97;;;;;;;;;;5007967;28;20155;-69
2021/09/09 10:12:12;;;;;;;7.72;4.15;;;;;;;;;;5003831;28;20061;-70
2021/09/09 10:14:42;;;;;;;8.02;4.53;;;;;;;;;;5009996;28;20501;-74
2021/09/09 10:17:11;;;;;;;7.57;4.80;;;;;;;;;;5011983;28;20052;-71
2021/09/09 10:19:39;;;;;;;5.82;4.00;;;;;;;;;;5010989;28;20505;-66
2021/09/09 10:22:15;;;;;;;6.20;4.40;;;;;;;;;;4998915;28;20510;-70
2021/09/09 10:24:44;;;;;;;7.07;4.25;;;;;;;;;;5011048;28;20308;-68
2021/09/09 10:27:17;;;;;;;6.28;4.65;;;;;;;;;;5011423;28;20504;-68
2021/09/09 10:29:49;;;;;;;5.63;4.50;;;;;;;;;;5012380;28;20049;-66
2021/09/09 10:32:37;;;;;;;6.30;4.13;;;;;;;;;;5010226;28;20057;-66
2021/09/09 10:35:30;;;;;;;7.40;4.30;;;;;;;;;;5004994;28;20046;-73
2021/09/09 10:38:20;;;;;;;7.45;4.07;;;;;;;;;;5012670;28;20124;-66
2021/09/09 10:40:52;;;;;;;7.03;4.68;;;;;;;;;;5008173;28;20457;-69
2021/09/09 10:43:36;;;;;;;6.35;4.28;;;;;;;;;;5006834;28;20076;-66
2021/09/09 10:46:06;;;;;;;6.57;4.32;;;;;;;;;;5010477;28;20048;-66
2021/09/09 10:48:34;;;;;;;6.35;4.65;;;;;;;;;;5011124;28;20042;-69
2021/09/09 10:51:04;;;;;;;6.22;4.38;;;;;;;;;;5007480;28;20042;-66
2021/09/09 10:53:37;;;;;;;6.45;4.85;;;;;;;;;;5010307;28;20077;-66
2021/09/09 10:56:12;;;;;;;6.40;4.47;;;;;;;;;;4998286;28;20129;-71
2021/09/09 10:58:41;;;;;;;6.55;4.55;;;;;;;;;;5009917;28;20050;-76
2021/09/09 11:01:10;;;;;;;5.35;4.38;;;;;;;;;;5002206;28;20080;-68
2021/09/09 11:03:39;;;;;;;6.13;4.50;;;;;;;;;;5003437;28;20418;-70
2021/09/09 11:06:09;;;;;;;6.35;4.05;;;;;;;;;;5005989;28;20485;-69
2021/09/09 11:08:39;;;;;;;5.72;4.38;;;;;;;;;;5009749;28;20046;-69
2021/09/09 11:11:08;;;;;;;7.00;4.47;;;;;;;;;;5011581;28;20046;-68
2021/09/09 11:13:38;;;;;;;5.45;4.22;;;;;;;;;;5009735;28;20050;-67
2021/09/09 11:16:20;;;;;;;7.55;4.32;;;;;;;;;;5004166;28;20053;-73
2021/09/09 11:18:49;;;;;;;5.53;4.32;;;;;;;;;;5009968;28;20498;-69
2021/09/09 11:21:18;;;;;;;6.72;4.53;;;;;;;;;;5008086;28;20050;-71
2021/09/09 11:23:49;;;;;;;7.85;4.57;;;;;;;;;;5009947;28;20073;-67
2021/09/09 11:26:18;;;;;;;7.53;4.35;;;;;;;;;;5008079;28;20490;-69
2021/09/09 11:28:48;;;;;;;5.20;4.10;;;;;;;;;;5002572;28;20096;-68
2021/09/09 11:31:19;;;;;;;9.70;4.53;;;;;;;;;;5008441;28;20528;-72
2021/09/09 11:33:52;;;;;;;6.38;4.40;;;;;;;;;;5001309;28;20042;-67
2021/09/09 11:36:21;;;;;;;6.10;4.20;;;;;;;;;;5008696;28;20053;-68
2021/09/09 11:38:51;;;;;;;5.60;4.20;;;;;;;;;;5008897;28;20107;-70
2021/09/09 11:41:21;;;;;;;8.13;4.00;;;;;;;;;;5010677;28;20042;-68
2021/09/09 11:43:50;;;;;;;6.68;3.80;;;;;;;;;;5007353;28;20503;-67
2021/09/09 11:46:28;;;;;;;7.28;3.92;;;;;;;;;;5010354;28;20409;-73
2021/09/09 11:48:58;;;;;;;5.20;4.03;;;;;;;;;;5006167;28;20065;-71
2021/09/09 11:51:40;;;;;;;7.78;4.25;;;;;;;;;;5008725;28;20138;-66
2021/09/09 11:54:10;;;;;;;7.20;4.50;;;;;;;;;;5010342;28;20433;-67
2021/09/09 11:56:39;;;;;;;5.35;4.30;;;;;;;;;;5008927;28;20046;-67
2021/09/09 11:59:09;;;;;;;6.40;4.38;;;;;;;;;;5008315;28;20081;-66
2021/09/09 12:01:39;;;;;;;6.28;4.15;;;;;;;;;;5007920;28;20050;-71
2021/09/09 12:04:08;;;;;;;6.60;4.22;;;;;;;;;;5008152;28;20413;-71
2021/09/09 12:06:38;;;;;;;6.30;4.43;;;;;;;;;;5010228;28;20152;-67
2021/09/09 12:09:07;;;;;;;6.20;3.72;;;;;;;;;;5009542;28;20418;-68
2021/09/09 12:11:37;;;;;;;5.13;3.80;;;;;;;;;;5008739;28;20046;-73
2021/09/09 12:14:18;;;;;;;4.40;3.65;;;;;;;;;;5005012;28;20070;-69
2021/09/09 12:16:47;;;;;;;8.43;4.10;;;;;;;;;;4998474;28;20380;-71
2021/09/09 12:19:16;;;;;;;8.32;4.50;;;;;;;;;;5009522;28;20054;-67
2021/09/09 12:21:54;;;;;;;6.00;4.40;;;;;;;;;;5009280;28;20137;-67
2021/09/09 12:24:29;;;;;;;5.18;3.90;;;;;;;;;;5009032;28;20054;-67
2021/09/09 12:26:57;;;;;;;;;;;;;;;;;;5010707;28;20089;-67
2021/09/09 12:29:35;;;;;;;5.75;3.85;;;;;;;;;;5009113;28;20022;-67
2021/09/09 12:32:04;;;;;;;7.57;3.53;;;;;;;;;;4998336;28;20137;-67
2021/09/09 12:34:37;;;;;;;5.82;3.78;;;;;;;;;;5009096;28;20054;-67
2021/09/09 12:37:14;;;;;;;4.95;3.65;;;;;;;;;;5001522;28;20568;-71
2021/09/09 12:39:46;;;;;;;6.78;3.78;;;;;;;;;;5008120;28;20509;-67
2021/09/09 12:42:15;;;;;;;5.70;3.60;;;;;;;;;;5007442;28;20116;-72
2021/09/09 12:44:45;;;;;;;5.47;3.70;;;;;;;;;;5008251;28;20533;-67
2021/09/09 12:47:17;;;;;;;6.10;3.88;;;;;;;;;;5009591;28;20082;-67
2021/09/09 12:49:45;;;;;;;7.50;4.00;;;;;;;;;;5008662;28;20045;-70
2021/09/09 12:52:15;;;;;;;4.95;3.20;;;;;;;;;;5007541;28;20088;-68
2021/09/09 12:54:47;;;;;;;6.65;3.45;;;;;;;;;;5007073;28;20068;-71
2021/09/09 12:57:30;;;;;;;6.80;3.90;;;;;;;;;;4998728;28;20092;-68
2021/09/09 13:00:00;;;;;;;5.35;3.40;;;;;;;;;;5008360;28;20077;-69
2021/09/09 13:02:28;;;;;;;4.15;3.40;;;;;;;;;;5008751;28;20054;-70
2021/09/09 13:04:57;;;;;;;5.97;4.10;;;;;;;;;;5008934;28;20522;-68
2021/09/09 13:07:26;;;;;;;7.10;3.63;;;;;;;;;;5009718;28;20473;-69
2021/09/09 13:10:03;;;;;;;4.75;3.70;;;;;;;;;;5006121;28;20045;-69
2021/09/09 13:12:31;;;;;;;6.78;3.95;;;;;;;;;;4992761;28;20125;-71
2021/09/09 13:15:01;;;;;;;6.75;3.60;;;;;;;;;;5004842;28;20042;-68
2021/09/09 13:17:30;;;;;;;5.22;3.78;;;;;;;;;;5009852;28;20050;-68
2021/09/09 13:19:58;;;;;;;7.55;3.60;;;;;;;;;;5006232;28;20762;-70
2021/09/09 13:22:27;;;;;;;4.78;3.50;;;;;;;;;;5009042;28;20050;-73
2021/09/09 13:24:56;;;;;;;7.05;3.50;;;;;;;;;;5008673;28;20045;-72
2021/09/09 13:27:24;;;;;;;5.70;3.90;;;;;;;;;;5007033;28;20137;-68
2021/09/09 13:29:53;;;;;;;6.68;4.13;;;;;;;;;;5008397;28;20409;-68
2021/09/09 13:32:25;;;;;;;3.85;3.08;;;;;;;;;;4999397;28;20050;-72
2021/09/09 13:34:53;;;;;;;5.00;3.28;;;;;;;;;;5007608;28;20038;-67
2021/09/09 13:37:22;;;;;;;5.28;3.20;;;;;;;;;;5008891;28;20049;-69
2021/09/09 13:39:52;;;;;;;7.32;3.70;;;;;;;;;;5011214;28;20507;-70
2021/09/09 13:42:21;;;;;;;5.93;3.05;;;;;;;;;;5008527;28;20132;-68
2021/09/09 13:44:49;;;;;;;4.47;2.70;;;;;;;;;;5007839;28;20064;-71
2021/09/09 13:47:17;;;;;;;4.78;2.72;;;;;;;;;;4993151;28;20069;-68
2021/09/09 13:49:47;;;;;;;4.60;3.13;;;;;;;;;;4999116;28;20473;-70
2021/09/09 13:52:26;;;;;;;4.93;3.22;;;;;;;;;;5006147;28;20050;-67
2021/09/09 13:54:55;;;;;;;6.22;3.30;;;;;;;;;;5000144;28;20140;-67
2021/09/09 13:57:23;;;;;;;6.43;3.28;;;;;;;;;;5012185;28;20129;-69
2021/09/09 14:00:08;;;;;;;5.10;2.92;;;;;;;;;;5002337;28;20097;-70
2021/09/09 14:02:37;;;;;;;5.32;3.20;;;;;;;;;;5002418;28;20045;-66
2021/09/09 14:05:11;;;;;;;4.25;3.15;;;;;;;;;;5000802;28;20054;-66
2021/09/09 14:07:40;;;;;;;5.07;3.70;;;;;;;;;;5008223;28;20077;-66
2021/09/09 14:10:10;;;;;;;5.68;3.60;;;;;;;;;;5008197;28;20056;-69
2021/09/09 14:12:38;;;;;;;5.45;3.20;;;;;;;;;;5006218;28;20042;-69
2021/09/09 14:15:09;;;;;;;7.50;3.83;;;;;;;;;;4998813;28;20162;-68
2021/09/09 14:17:37;;;;;;;7.38;3.25;;;;;;;;;;5008625;28;20433;-68
2021/09/09 14:20:07;;;;;;;5.22;3.22;;;;;;;;;;5007968;28;20370;-68
2021/09/09 14:22:37;;;;;;;5.07;3.80;;;;;;;;;;5006681;28;20050;-68
2021/09/09 14:25:07;;;;;;;6.57;3.35;;;;;;;;;;4992526;28;20054;-68
2021/09/09 14:27:36;;;;;;;4.65;3.08;;;;;;;;;;5008606;28;20160;-68
2021/09/09 14:30:04;;;;;;;4.15;3.05;;;;;;;;;;5005637;28;20501;-68
2021/09/09 14:32:33;;;;;;;7.15;3.70;;;;;;;;;;5008053;28;20484;-69
2021/09/09 14:35:01;;;;;;;5.25;3.45;;;;;;;;;;5005800;28;20072;-69
2021/09/09 14:37:29;;;;;;;5.70;3.65;;;;;;;;;;5008925;28;20050;-71
2021/09/09 14:39:59;;;;;;;4.10;2.90;;;;;;;;;;5006386;28;20056;-70
2021/09/09 14:42:28;;;;;;;8.52;3.53;;;;;;;;;;5004122;28;20053;-69
2021/09/09 14:44:56;;;;;;;7.85;3.30;;;;;;;;;;5007919;28;20132;-68
2021/09/09 14:47:24;;;;;;;5.40;3.17;;;;;;;;;;5007561;28;20461;-69
2021/09/09 14:49:53;;;;;;;4.95;3.05;;;;;;;;;;5005280;28;20125;-71
2021/09/09 14:52:21;;;;;;;5.47;3.38;;;;;;;;;;5007212;28;20077;-69